createdAt,value
2022-08-02T00:00:18.085Z,1.40
2022-08-02T00:01:20.897Z,1.52
2022-08-02T00:02:25.176Z,1.60
2022-08-02T00:03:27.915Z,1.67
2022-08-02T00:04:31.997Z,1.30
2022-08-02T00:05:35.358Z,1.60
2022-08-02T00:06:38.776Z,1.52
2022-08-02T00:07:41.678Z,1.95
2022-08-02T00:08:44.590Z,1.55
2022-08-02T00:09:47.380Z,1.73
2022-08-02T00:10:50.277Z,1.50
2022-08-02T00:11:53.082Z,1.70
2022-08-02T00:12:55.879Z,1.55
2022-08-02T00:13:58.692Z,1.55
2022-08-02T00:15:02.096Z,1.75
2022-08-02T00:16:05.418Z,1.40
2022-08-02T00:17:08.269Z,1.80
2022-08-02T00:18:11.110Z,2.00
2022-08-02T00:19:14.070Z,1.37
2022-08-02T00:20:17.206Z,1.60
2022-08-02T00:21:19.897Z,1.40
2022-08-02T00:22:23.006Z,1.48
2022-08-02T00:23:25.673Z,1.50
2022-08-02T00:24:30.593Z,1.50
2022-08-02T00:25:33.790Z,1.50
2022-08-02T00:26:36.965Z,1.65
2022-08-02T00:27:39.737Z,1.45
2022-08-02T00:28:46.092Z,1.50
2022-08-02T00:29:53.279Z,1.55
2022-08-02T00:30:59.127Z,1.55
2022-08-02T00:32:02.237Z,1.50
2022-08-02T00:33:05.974Z,1.52
2022-08-02T00:34:29.148Z,1.70
2022-08-02T00:35:32.288Z,1.50
2022-08-02T00:36:34.986Z,1.60
2022-08-02T00:37:40.810Z,1.70
2022-08-02T00:38:44.516Z,1.67
2022-08-02T00:39:47.205Z,1.52
2022-08-02T00:40:55.316Z,1.65
2022-08-02T00:43:04.904Z,1.60
2022-08-02T00:44:07.728Z,1.80
2022-08-02T00:45:10.696Z,1.60
2022-08-02T00:46:14.416Z,1.40
2022-08-02T00:47:19.324Z,1.60
2022-08-02T00:48:23.137Z,1.95
2022-08-02T00:49:25.908Z,1.50
2022-08-02T00:50:29.615Z,1.67
2022-08-02T00:51:32.299Z,1.62
2022-08-02T00:52:35.027Z,1.45
2022-08-02T00:53:38.510Z,1.70
2022-08-02T00:54:41.398Z,1.37
2022-08-02T00:55:47.958Z,1.42
2022-08-02T00:56:52.036Z,1.48
2022-08-02T00:57:55.487Z,1.70
2022-08-02T00:58:58.271Z,1.60
2022-08-02T01:00:00.980Z,1.70
2022-08-02T01:01:03.930Z,1.60
2022-08-02T01:02:06.683Z,1.60
2022-08-02T01:03:09.394Z,1.65
2022-08-02T01:04:14.085Z,1.70
2022-08-02T01:05:18.978Z,1.67
2022-08-02T01:06:22.067Z,2.10
2022-08-02T01:07:24.888Z,1.52
2022-08-02T01:08:31.840Z,1.90
2022-08-02T01:09:34.786Z,1.60
2022-08-02T01:10:37.692Z,1.60
2022-08-02T01:11:40.503Z,1.50
2022-08-02T01:12:43.139Z,1.70
2022-08-02T01:13:45.820Z,1.73
2022-08-02T01:14:51.070Z,1.50
2022-08-02T01:16:02.634Z,1.60
2022-08-02T01:17:27.210Z,1.55
2022-08-02T01:18:39.233Z,1.62
2022-08-02T01:19:57.151Z,1.62
2022-08-02T01:21:37.521Z,1.60
2022-08-02T01:23:01.494Z,1.55
2022-08-02T01:24:52.418Z,1.70
2022-08-02T01:26:16.796Z,1.50
2022-08-02T01:27:21.264Z,1.77
2022-08-02T01:28:52.580Z,1.70
2022-08-02T01:29:59.288Z,1.67
2022-08-02T01:31:10.653Z,1.50
2022-08-02T01:32:17.948Z,1.67
2022-08-02T01:33:22.287Z,1.73
2022-08-02T01:34:34.589Z,1.70
2022-08-02T01:35:47.265Z,1.70
2022-08-02T01:37:16.513Z,1.70
2022-08-02T01:38:45.103Z,1.90
2022-08-02T01:39:56.773Z,1.50
2022-08-02T01:41:02.543Z,2.30
2022-08-02T01:42:07.834Z,1.70
2022-08-02T01:43:12.401Z,1.70
2022-08-02T01:44:17.284Z,1.73
2022-08-02T01:45:39.770Z,1.77
2022-08-02T01:46:44.706Z,1.73
2022-08-02T01:47:50.927Z,1.42
2022-08-02T01:48:56.744Z,1.70
2022-08-02T01:50:01.466Z,1.75
2022-08-02T01:51:05.291Z,1.65
2022-08-02T01:52:22.924Z,2.08
2022-08-02T01:53:29.072Z,1.70
2022-08-02T01:54:33.426Z,1.52
2022-08-02T01:55:58.340Z,1.85
2022-08-02T01:57:05.441Z,1.50
2022-08-02T01:58:09.910Z,1.62
2022-08-02T01:59:16.908Z,1.92
2022-08-02T02:00:23.369Z,2.10
2022-08-02T02:01:26.381Z,1.70
2022-08-02T02:02:31.871Z,1.55
2022-08-02T02:03:35.825Z,1.50
2022-08-02T02:04:47.160Z,1.48
2022-08-02T02:05:52.348Z,1.70
2022-08-02T02:06:57.506Z,1.80
2022-08-02T02:08:03.171Z,1.70
2022-08-02T02:09:06.803Z,1.85
2022-08-02T02:10:14.826Z,1.87
2022-08-02T02:12:11.505Z,1.80
2022-08-02T02:12:42.018Z,1.85
2022-08-02T02:13:45.855Z,1.75
2022-08-02T02:14:51.906Z,1.60
2022-08-02T02:15:56.415Z,1.67
2022-08-02T02:17:00.709Z,1.45
2022-08-02T02:18:13.039Z,1.60
2022-08-02T02:19:21.388Z,1.55
2022-08-02T02:20:29.993Z,1.75
2022-08-02T02:21:32.790Z,1.50
2022-08-02T02:22:37.996Z,2.00
2022-08-02T02:23:43.927Z,1.92
2022-08-02T02:24:46.832Z,1.60
2022-08-02T02:25:53.112Z,2.20
2022-08-02T02:27:02.265Z,1.35
2022-08-02T02:28:13.474Z,1.70
2022-08-02T02:29:17.303Z,1.95
2022-08-02T02:30:20.512Z,1.83
2022-08-02T02:31:25.959Z,1.60
2022-08-02T02:32:30.040Z,1.80
2022-08-02T02:33:35.733Z,1.90
2022-08-02T02:34:42.995Z,1.73
2022-08-02T02:35:52.752Z,1.80
2022-08-02T02:37:01.706Z,2.35
2022-08-02T02:38:08.528Z,1.85
2022-08-02T02:39:13.708Z,1.87
2022-08-02T02:40:18.260Z,1.80
2022-08-02T02:41:24.156Z,1.55
2022-08-02T02:42:31.532Z,1.50
2022-08-02T02:43:38.237Z,1.55
2022-08-02T02:44:41.267Z,1.60
2022-08-02T02:45:45.324Z,1.62
2022-08-02T02:46:51.696Z,1.65
2022-08-02T02:47:56.637Z,1.55
2022-08-02T02:49:05.719Z,1.52
2022-08-02T02:50:10.529Z,1.65
2022-08-02T02:51:14.580Z,1.90
2022-08-02T02:52:18.401Z,1.77
2022-08-02T02:53:22.830Z,1.87
2022-08-02T02:54:33.796Z,1.70
2022-08-02T02:55:42.026Z,1.70
2022-08-02T02:57:06.506Z,1.60
2022-08-02T02:58:10.145Z,1.62
2022-08-02T02:59:15.530Z,1.67
2022-08-02T03:00:18.997Z,1.60
2022-08-02T03:01:56.150Z,1.62
2022-08-02T03:02:53.985Z,1.75
2022-08-02T03:04:06.764Z,1.85
2022-08-02T03:05:11.389Z,1.50
2022-08-02T03:06:18.137Z,1.90
2022-08-02T03:07:21.146Z,1.60
2022-08-02T03:08:24.034Z,1.58
2022-08-02T03:09:28.020Z,1.75
2022-08-02T03:10:30.953Z,1.67
2022-08-02T03:11:36.067Z,1.70
2022-08-02T03:12:39.672Z,1.45
2022-08-02T03:13:46.167Z,1.85
2022-08-02T03:14:49.399Z,1.60
2022-08-02T03:15:56.011Z,1.52
2022-08-02T03:16:58.904Z,1.62
2022-08-02T03:18:05.229Z,1.48
2022-08-02T03:19:08.169Z,1.60
2022-08-02T03:20:19.984Z,1.98
2022-08-02T03:21:23.172Z,1.70
2022-08-02T03:22:25.933Z,1.70
2022-08-02T03:23:29.339Z,2.05
2022-08-02T03:24:32.809Z,1.70
2022-08-02T03:25:35.775Z,1.60
2022-08-02T03:26:39.889Z,1.65
2022-08-02T03:27:43.059Z,1.70
2022-08-02T03:28:45.889Z,2.12
2022-08-02T03:29:48.625Z,1.80
2022-08-02T03:30:51.899Z,1.50
2022-08-02T03:31:55.336Z,1.50
2022-08-02T03:32:58.238Z,1.50
2022-08-02T03:34:02.155Z,1.65
2022-08-02T03:35:08.060Z,1.50
2022-08-02T03:36:19.619Z,1.45
2022-08-02T03:37:24.493Z,1.70
2022-08-02T03:38:33.039Z,1.35
2022-08-02T03:39:36.542Z,1.45
2022-08-02T03:40:45.267Z,1.50
2022-08-02T03:41:49.898Z,1.60
2022-08-02T03:42:53.885Z,1.73
2022-08-02T03:43:58.441Z,1.85
2022-08-02T03:45:08.495Z,1.92
2022-08-02T03:46:14.972Z,1.50
2022-08-02T03:47:23.074Z,1.80
2022-08-02T03:49:39.014Z,1.67
2022-08-02T03:50:43.717Z,1.50
2022-08-02T03:51:47.279Z,1.75
2022-08-02T03:52:51.109Z,1.77
2022-08-02T03:53:55.031Z,1.60
2022-08-02T03:54:58.308Z,1.87
2022-08-02T03:56:03.060Z,1.85
2022-08-02T03:57:10.283Z,2.30
2022-08-02T03:58:20.781Z,1.50
2022-08-02T03:59:24.053Z,1.70
2022-08-02T04:00:27.109Z,1.92
2022-08-02T04:01:30.250Z,1.80
2022-08-02T04:02:36.310Z,1.80
2022-08-02T04:03:39.255Z,2.00
2022-08-02T04:04:43.236Z,1.70
2022-08-02T04:06:00.780Z,1.80
2022-08-02T04:07:09.323Z,1.60
2022-08-02T04:08:35.688Z,1.60
2022-08-02T04:09:35.700Z,1.75
2022-08-02T04:10:57.735Z,1.85
2022-08-02T04:12:00.780Z,1.45
2022-08-02T04:13:03.848Z,1.80
2022-08-02T04:14:11.396Z,1.67
2022-08-02T04:15:16.049Z,1.83
2022-08-02T04:16:23.269Z,1.60
2022-08-02T04:17:28.272Z,1.50
2022-08-02T04:18:43.555Z,1.70
2022-08-02T04:19:53.951Z,1.95
2022-08-02T04:21:00.299Z,1.60
2022-08-02T04:22:05.243Z,1.80
2022-08-02T04:23:12.465Z,1.87
2022-08-02T04:24:19.910Z,1.83
2022-08-02T04:25:34.298Z,1.75
2022-08-02T04:26:45.086Z,1.77
2022-08-02T04:28:17.157Z,1.60
2022-08-02T04:29:17.468Z,2.10
2022-08-02T04:30:21.702Z,1.80
2022-08-02T04:31:25.113Z,1.80
2022-08-02T04:32:28.624Z,2.40
2022-08-02T04:33:31.757Z,1.65
2022-08-02T04:34:34.862Z,1.70
2022-08-02T04:35:38.021Z,1.67
2022-08-02T04:36:41.221Z,1.58
2022-08-02T04:38:09.562Z,1.77
2022-08-02T04:39:08.171Z,1.45
2022-08-02T04:40:12.754Z,1.83
2022-08-02T04:41:15.962Z,1.90
2022-08-02T04:42:26.114Z,1.80
2022-08-02T04:43:37.109Z,1.62
2022-08-02T04:44:40.015Z,1.77
2022-08-02T04:45:43.650Z,1.95
2022-08-02T04:46:47.436Z,1.85
2022-08-02T04:48:02.568Z,1.77
2022-08-02T04:49:07.761Z,1.70
2022-08-02T04:50:10.875Z,1.73
2022-08-02T04:51:13.911Z,1.80
2022-08-02T04:52:16.989Z,1.60
2022-08-02T04:53:20.243Z,2.00
2022-08-02T04:54:26.015Z,1.60
2022-08-02T04:55:30.252Z,1.60
2022-08-02T04:56:37.382Z,1.90
2022-08-02T04:57:55.346Z,1.60
2022-08-02T04:58:58.612Z,1.42
2022-08-02T05:00:01.548Z,1.85
2022-08-02T05:01:08.452Z,1.70
2022-08-02T05:02:11.597Z,1.70
2022-08-02T05:03:14.951Z,1.73
2022-08-02T05:04:17.873Z,1.60
2022-08-02T05:05:21.169Z,1.80
2022-08-02T05:06:24.828Z,1.70
2022-08-02T05:07:29.601Z,1.85
2022-08-02T05:08:39.603Z,1.67
2022-08-02T05:09:42.537Z,2.00
2022-08-02T05:10:45.441Z,1.50
2022-08-02T05:11:54.933Z,1.65
2022-08-02T05:12:58.115Z,1.60
2022-08-02T05:14:01.306Z,1.70
2022-08-02T05:15:04.574Z,1.60
2022-08-02T05:16:11.375Z,1.80
2022-08-02T05:17:14.629Z,1.62
2022-08-02T05:18:19.301Z,1.60
2022-08-02T05:19:22.244Z,1.60
2022-08-02T05:20:25.283Z,1.50
2022-08-02T05:21:28.218Z,1.90
2022-08-02T05:22:31.273Z,1.52
2022-08-02T05:23:34.178Z,1.58
2022-08-02T05:24:37.210Z,1.60
2022-08-02T05:25:40.119Z,1.48
2022-08-02T05:26:43.256Z,1.50
2022-08-02T05:27:46.127Z,1.48
2022-08-02T05:28:49.385Z,1.60
2022-08-02T05:29:54.156Z,1.35
2022-08-02T05:31:00.148Z,1.80
2022-08-02T05:32:04.300Z,1.60
2022-08-02T05:33:07.514Z,1.55
2022-08-02T05:34:12.145Z,1.45
2022-08-02T05:35:20.091Z,1.70
2022-08-02T05:36:26.373Z,1.85
2022-08-02T05:37:32.327Z,1.70
2022-08-02T05:38:36.935Z,1.70
2022-08-02T05:39:55.432Z,1.58
2022-08-02T05:40:59.394Z,1.70
2022-08-02T05:42:02.313Z,1.30
2022-08-02T05:43:15.020Z,2.15
2022-08-02T05:44:18.058Z,1.40
2022-08-02T05:45:21.199Z,1.40
2022-08-02T05:46:24.616Z,1.60
2022-08-02T05:47:27.640Z,1.62
2022-08-02T05:48:32.344Z,1.50
2022-08-02T05:49:36.212Z,1.45
2022-08-02T05:50:45.446Z,1.50
2022-08-02T05:52:00.688Z,2.00
2022-08-02T05:53:14.688Z,1.30
2022-08-02T05:54:39.635Z,1.60
2022-08-02T05:55:58.246Z,1.45
2022-08-02T05:57:01.092Z,1.90
2022-08-02T05:58:44.812Z,1.30
2022-08-02T06:00:06.536Z,1.50
2022-08-02T06:01:14.520Z,1.30
2022-08-02T06:02:30.865Z,1.25
2022-08-02T06:03:44.556Z,1.48
2022-08-02T06:05:05.313Z,1.33
2022-08-02T06:06:14.791Z,1.60
2022-08-02T06:07:20.485Z,1.30
2022-08-02T06:08:33.060Z,1.40
2022-08-02T06:09:38.913Z,1.50
2022-08-02T06:10:43.544Z,1.30
2022-08-02T06:12:02.025Z,1.40
2022-08-02T06:13:22.207Z,1.50
2022-08-02T06:14:30.061Z,1.40
2022-08-02T06:15:34.845Z,2.03
2022-08-02T06:16:44.964Z,1.67
2022-08-02T06:17:49.259Z,1.40
2022-08-02T06:18:54.116Z,1.60
2022-08-02T06:22:34.781Z,1.83
2022-08-02T06:22:37.178Z,1.52
2022-08-02T06:23:58.489Z,1.40
2022-08-02T06:25:03.903Z,1.52
2022-08-02T06:26:09.348Z,1.50
2022-08-02T06:27:16.065Z,1.52
2022-08-02T06:28:20.319Z,1.73
2022-08-02T06:29:24.963Z,1.30
2022-08-02T06:30:28.515Z,1.40
2022-08-02T06:31:31.720Z,1.40
2022-08-02T06:32:35.464Z,1.65
2022-08-02T06:33:42.383Z,1.50
2022-08-02T06:34:46.562Z,1.37
2022-08-02T06:36:15.887Z,1.50
2022-08-02T06:37:38.240Z,2.15
2022-08-02T06:38:50.866Z,1.33
2022-08-02T06:40:16.370Z,1.50
2022-08-02T06:41:24.230Z,1.60
2022-08-02T06:43:00.099Z,1.40
2022-08-02T06:44:27.374Z,1.70
2022-08-02T06:45:27.671Z,1.70
2022-08-02T06:47:10.315Z,1.45
2022-08-02T06:47:58.274Z,1.90
2022-08-02T06:49:02.270Z,1.40
2022-08-02T06:50:09.256Z,1.50
2022-08-02T06:51:13.204Z,1.40
2022-08-02T06:52:18.989Z,1.83
2022-08-02T06:53:22.354Z,1.50
2022-08-02T06:54:25.358Z,1.42
2022-08-02T06:55:29.915Z,1.50
2022-08-02T06:56:32.851Z,1.60
2022-08-02T06:57:36.058Z,1.50
2022-08-02T06:58:39.600Z,1.30
2022-08-02T06:59:42.761Z,1.58
2022-08-02T07:00:45.842Z,1.40
2022-08-02T07:01:49.096Z,1.60
2022-08-02T07:02:52.279Z,1.40
2022-08-02T07:03:55.439Z,1.37
2022-08-02T07:04:59.931Z,1.40
2022-08-02T07:06:03.009Z,1.40
2022-08-02T07:07:05.865Z,1.37
2022-08-02T07:08:08.938Z,1.40
2022-08-02T07:09:20.635Z,1.58
2022-08-02T07:10:24.559Z,1.42
2022-08-02T07:11:27.500Z,1.80
2022-08-02T07:12:32.176Z,1.30
2022-08-02T07:13:39.365Z,1.35
2022-08-02T07:14:42.766Z,1.42
2022-08-02T07:15:45.765Z,1.67
2022-08-02T07:16:53.752Z,1.30
2022-08-02T07:17:56.691Z,1.50
2022-08-02T07:18:59.776Z,1.40
2022-08-02T07:20:03.076Z,1.35
2022-08-02T07:21:06.494Z,1.50
2022-08-02T07:22:13.525Z,1.37
2022-08-02T07:23:17.264Z,1.48
2022-08-02T07:24:20.196Z,1.50
2022-08-02T07:25:23.228Z,1.62
2022-08-02T07:26:26.233Z,1.42
2022-08-02T07:27:29.670Z,1.52
2022-08-02T07:28:33.271Z,1.40
2022-08-02T07:29:45.003Z,1.50
2022-08-02T07:30:52.428Z,1.50
2022-08-02T07:31:56.663Z,1.37
2022-08-02T07:33:00.418Z,1.27
2022-08-02T07:34:03.352Z,1.60
2022-08-02T07:35:07.696Z,1.50
2022-08-02T07:36:17.068Z,1.45
2022-08-02T07:37:53.150Z,1.37
2022-08-02T07:38:58.332Z,1.42
2022-08-02T07:40:01.724Z,1.30
2022-08-02T07:41:08.543Z,1.40
2022-08-02T07:42:11.998Z,1.40
2022-08-02T07:43:15.445Z,1.40
2022-08-02T07:44:19.768Z,1.30
2022-08-02T07:45:23.505Z,1.37
2022-08-02T07:46:26.476Z,1.30
2022-08-02T07:47:31.681Z,1.55
2022-08-02T07:48:41.059Z,1.30
2022-08-02T07:49:44.204Z,1.75
2022-08-02T07:50:47.175Z,1.40
2022-08-02T07:51:50.238Z,1.30
2022-08-02T07:52:57.060Z,1.37
2022-08-02T07:54:02.608Z,1.40
2022-08-02T07:55:07.782Z,1.58
2022-08-02T07:56:10.803Z,1.20
2022-08-02T07:57:13.868Z,1.40
2022-08-02T07:58:17.370Z,1.55
2022-08-02T07:59:21.404Z,1.33
2022-08-02T08:00:28.268Z,1.30
2022-08-02T08:01:34.609Z,1.40
2022-08-02T08:02:39.557Z,1.40
2022-08-02T08:03:46.305Z,1.50
2022-08-02T08:04:49.234Z,1.60
2022-08-02T08:05:54.766Z,1.35
2022-08-02T08:07:01.773Z,1.45
2022-08-02T08:08:06.318Z,1.40
2022-08-02T08:09:10.772Z,1.50
2022-08-02T08:10:13.647Z,1.40
2022-08-02T08:11:16.834Z,1.45
2022-08-02T08:12:19.894Z,1.50
2022-08-02T08:13:22.853Z,1.60
2022-08-02T08:14:25.735Z,1.40
2022-08-02T08:15:28.672Z,1.60
2022-08-02T08:16:35.534Z,1.33
2022-08-02T08:17:38.936Z,1.50
2022-08-02T08:18:42.012Z,1.48
2022-08-02T08:19:51.969Z,1.40
2022-08-02T08:20:55.669Z,1.42
2022-08-02T08:22:01.231Z,1.37
2022-08-02T08:23:04.452Z,1.60
2022-08-02T08:24:11.301Z,1.45
2022-08-02T08:25:14.438Z,1.65
2022-08-02T08:26:21.338Z,1.58
2022-08-02T08:27:24.513Z,1.30
2022-08-02T08:28:28.269Z,1.42
2022-08-02T08:29:31.366Z,1.33
2022-08-02T08:30:34.258Z,1.58
2022-08-02T08:31:40.504Z,1.20
2022-08-02T08:32:45.637Z,1.40
2022-08-02T08:33:48.584Z,1.50
2022-08-02T08:34:51.644Z,1.60
2022-08-02T08:35:55.249Z,1.25
2022-08-02T08:36:58.115Z,1.50
2022-08-02T08:38:05.481Z,1.40
2022-08-02T08:39:10.983Z,1.30
2022-08-02T08:40:19.292Z,1.40
2022-08-02T08:41:23.172Z,1.50
2022-08-02T08:42:31.125Z,1.37
2022-08-02T08:43:34.161Z,1.40
2022-08-02T08:44:37.166Z,1.40
2022-08-02T08:45:43.721Z,1.27
2022-08-02T08:46:50.006Z,1.40
2022-08-02T08:48:00.504Z,1.40
2022-08-02T08:49:09.683Z,1.27
2022-08-02T08:50:24.741Z,1.40
2022-08-02T08:51:31.975Z,1.50
2022-08-02T08:52:41.678Z,1.62
2022-08-02T08:53:49.949Z,1.30
2022-08-02T08:54:55.491Z,1.30
2022-08-02T08:55:59.623Z,1.60
2022-08-02T08:57:08.037Z,1.30
2022-08-02T08:58:14.229Z,1.35
2022-08-02T08:59:17.527Z,1.33
2022-08-02T09:00:21.198Z,1.30
2022-08-02T09:01:24.430Z,1.30
2022-08-02T09:02:28.583Z,1.40
2022-08-02T09:03:33.875Z,1.30
2022-08-02T09:04:37.240Z,1.35
2022-08-02T09:05:42.355Z,1.20
2022-08-02T09:06:45.663Z,1.60
2022-08-02T09:07:50.716Z,1.40
2022-08-02T09:08:58.529Z,1.45
2022-08-02T09:10:01.497Z,1.40
2022-08-02T09:11:13.167Z,1.40
2022-08-02T09:12:17.769Z,1.40
2022-08-02T09:13:31.339Z,1.30
2022-08-02T09:14:50.136Z,1.48
2022-08-02T09:16:12.871Z,1.48
2022-08-02T09:17:24.356Z,1.60
2022-08-02T09:18:40.091Z,1.40
2022-08-02T09:19:45.964Z,1.40
2022-08-02T09:20:58.782Z,1.55
2022-08-02T09:22:05.852Z,1.52
2022-08-02T09:23:11.209Z,1.40
2022-08-02T09:24:21.929Z,1.25
2022-08-02T09:25:24.897Z,1.30
2022-08-02T09:26:28.467Z,1.30
2022-08-02T09:27:36.533Z,1.30
2022-08-02T09:28:42.399Z,1.50
2022-08-02T09:30:12.497Z,1.58
2022-08-02T09:31:40.671Z,1.37
2022-08-02T09:32:52.516Z,1.40
2022-08-02T09:33:57.556Z,1.40
2022-08-02T09:35:00.735Z,1.75
2022-08-02T09:36:12.572Z,1.50
2022-08-02T09:37:24.548Z,1.27
2022-08-02T09:38:28.590Z,1.40
2022-08-02T09:39:46.598Z,1.40
2022-08-02T09:40:50.866Z,1.23
2022-08-02T09:42:08.079Z,1.48
2022-08-02T09:43:10.987Z,1.50
2022-08-02T09:44:16.785Z,1.42
2022-08-02T09:45:20.158Z,1.30
2022-08-02T09:46:25.790Z,1.30
2022-08-02T09:47:31.255Z,1.70
2022-08-02T09:48:53.012Z,1.40
2022-08-02T09:49:57.367Z,1.30
2022-08-02T09:51:01.210Z,1.77
2022-08-02T09:52:05.941Z,1.20
2022-08-02T09:53:15.730Z,1.30
2022-08-02T09:54:18.592Z,1.30
2022-08-02T09:55:21.562Z,1.30
2022-08-02T09:56:35.514Z,1.40
2022-08-02T09:57:39.377Z,1.30
2022-08-02T09:58:42.621Z,1.27
2022-08-02T09:59:55.174Z,1.10
2022-08-02T10:01:02.378Z,1.40
2022-08-02T10:02:16.962Z,1.45
2022-08-02T10:03:21.951Z,1.37
2022-08-02T10:04:34.509Z,1.37
2022-08-02T10:05:56.157Z,1.37
2022-08-02T10:07:05.662Z,1.30
2022-08-02T10:08:08.927Z,1.20
2022-08-02T10:09:13.419Z,1.60
2022-08-02T10:10:16.575Z,1.23
2022-08-02T10:11:24.802Z,1.65
2022-08-02T10:12:28.112Z,1.37
2022-08-02T10:13:33.113Z,1.25
2022-08-02T10:14:36.227Z,1.25
2022-08-02T10:15:39.589Z,1.17
2022-08-02T10:16:54.923Z,1.27
2022-08-02T10:17:58.053Z,1.20
2022-08-02T10:19:06.281Z,1.27
2022-08-02T10:20:09.751Z,1.33
2022-08-02T10:21:21.300Z,1.40
2022-08-02T10:22:25.522Z,1.45
2022-08-02T10:23:34.482Z,1.42
2022-08-02T10:24:39.768Z,1.12
2022-08-02T10:25:53.766Z,1.30
2022-08-02T10:26:59.497Z,1.45
2022-08-02T10:28:05.486Z,1.27
2022-08-02T10:29:09.895Z,1.35
2022-08-02T10:30:13.300Z,1.33
2022-08-02T10:31:25.837Z,1.52
2022-08-02T10:32:38.161Z,1.33
2022-08-02T10:33:42.463Z,1.40
2022-08-02T10:35:19.022Z,1.27
2022-08-02T10:36:27.411Z,1.23
2022-08-02T10:37:33.620Z,1.27
2022-08-02T10:38:37.170Z,1.40
2022-08-02T10:39:49.100Z,1.20
2022-08-02T10:40:56.302Z,1.62
2022-08-02T10:41:59.281Z,1.20
2022-08-02T10:43:02.229Z,1.40
2022-08-02T10:44:24.822Z,1.37
2022-08-02T10:45:35.349Z,1.42
2022-08-02T10:46:38.886Z,1.30
2022-08-02T10:48:03.935Z,1.23
2022-08-02T10:49:38.047Z,1.50
2022-08-02T10:50:46.805Z,1.50
2022-08-02T10:52:06.442Z,1.27
2022-08-02T10:53:35.210Z,1.40
2022-08-02T10:55:01.643Z,1.52
2022-08-02T10:56:09.492Z,1.50
2022-08-02T10:57:24.060Z,1.20
2022-08-02T10:58:31.994Z,1.30
2022-08-02T10:59:37.133Z,1.30
2022-08-02T11:00:43.632Z,1.20
2022-08-02T11:01:46.611Z,1.60
2022-08-02T11:02:52.938Z,1.20
2022-08-02T11:04:00.827Z,1.45
2022-08-02T11:05:11.728Z,1.60
2022-08-02T11:06:26.006Z,1.40
2022-08-02T11:07:42.026Z,1.55
2022-08-02T11:08:50.583Z,1.20
2022-08-02T11:09:53.866Z,1.30
2022-08-02T11:11:09.620Z,1.20
2022-08-02T11:12:17.258Z,1.10
2022-08-02T11:13:20.645Z,1.20
2022-08-02T11:14:23.772Z,1.40
2022-08-02T11:15:27.763Z,1.17
2022-08-02T11:16:55.647Z,1.25
2022-08-02T11:18:02.303Z,1.40
2022-08-02T11:19:06.629Z,1.50
2022-08-02T11:20:12.603Z,1.23
2022-08-02T11:21:25.437Z,1.37
2022-08-02T11:22:30.584Z,1.25
2022-08-02T11:23:45.051Z,1.62
2022-08-02T11:24:49.039Z,1.50
2022-08-02T11:26:03.734Z,1.40
2022-08-02T11:27:22.344Z,1.30
2022-08-02T11:28:26.013Z,1.40
2022-08-02T11:29:38.659Z,1.30
2022-08-02T11:30:42.347Z,1.30
2022-08-02T11:31:46.442Z,1.67
2022-08-02T11:32:49.753Z,1.40
2022-08-02T11:33:53.221Z,1.17
2022-08-02T11:34:56.483Z,1.40
2022-08-02T11:36:06.591Z,1.10
2022-08-02T11:37:09.669Z,1.30
2022-08-02T11:38:21.041Z,1.45
2022-08-02T11:39:24.421Z,1.27
2022-08-02T11:40:41.905Z,1.20
2022-08-02T11:41:59.486Z,1.15
2022-08-02T11:43:02.531Z,1.40
2022-08-02T11:44:05.655Z,1.20
2022-08-02T11:45:10.099Z,1.25
2022-08-02T11:46:15.156Z,1.40
2022-08-02T11:47:20.201Z,1.17
2022-08-02T11:48:35.622Z,1.30
2022-08-02T11:49:38.859Z,1.37
2022-08-02T11:50:41.906Z,1.20
2022-08-02T11:52:05.651Z,1.50
2022-08-02T11:53:16.530Z,1.40
2022-08-02T11:54:30.637Z,1.20
2022-08-02T11:55:33.619Z,1.40
2022-08-02T11:56:36.710Z,1.10
2022-08-02T11:58:04.308Z,1.20
2022-08-02T11:59:08.920Z,1.37
2022-08-02T12:00:19.023Z,1.42
2022-08-02T12:01:21.932Z,1.40
2022-08-02T12:02:28.835Z,1.30
2022-08-02T12:03:42.402Z,1.30
2022-08-02T12:05:01.100Z,1.30
2022-08-02T12:06:16.387Z,1.23
2022-08-02T12:07:36.748Z,1.30
2022-08-02T12:08:39.883Z,1.20
2022-08-02T12:09:42.814Z,1.20
2022-08-02T12:12:00.537Z,1.23
2022-08-02T12:13:03.657Z,1.20
2022-08-02T12:14:06.814Z,1.60
2022-08-02T12:15:11.075Z,1.20
2022-08-02T12:16:33.581Z,1.50
2022-08-02T12:17:55.297Z,1.12
2022-08-02T12:19:16.886Z,1.10
2022-08-02T12:20:20.810Z,1.40
2022-08-02T12:21:30.471Z,1.27
2022-08-02T12:22:41.553Z,1.20
2022-08-02T12:24:00.268Z,1.20
2022-08-02T12:25:34.509Z,1.05
2022-08-02T12:26:46.446Z,1.12
2022-08-02T12:27:50.715Z,1.20
2022-08-02T12:28:58.625Z,1.20
2022-08-02T12:30:09.254Z,1.30
2022-08-02T12:31:18.412Z,1.30
2022-08-02T12:32:25.358Z,1.10
2022-08-02T12:33:44.474Z,1.20
2022-08-02T12:35:02.096Z,1.20
2022-08-02T12:36:18.631Z,1.20
2022-08-02T12:37:26.446Z,1.20
2022-08-02T12:38:30.100Z,1.10
2022-08-02T12:39:38.966Z,1.30
2022-08-02T12:40:42.112Z,1.20
2022-08-02T12:41:54.898Z,1.10
2022-08-02T12:43:08.381Z,1.10
2022-08-02T12:44:19.754Z,1.10
2022-08-02T12:45:23.711Z,1.25
2022-08-02T12:46:26.763Z,1.00
2022-08-02T12:47:35.772Z,1.12
2022-08-02T12:48:56.467Z,1.20
2022-08-02T12:50:30.024Z,1.10
2022-08-02T12:51:50.979Z,1.10
2022-08-02T12:53:18.280Z,1.25
2022-08-02T12:54:31.022Z,1.23
2022-08-02T12:56:01.222Z,1.30
2022-08-02T12:57:16.505Z,1.20
2022-08-02T12:58:19.541Z,1.30
2022-08-02T12:59:38.735Z,1.50
2022-08-02T13:00:44.259Z,1.25
2022-08-02T13:01:53.594Z,1.20
2022-08-02T13:02:57.665Z,1.20
2022-08-02T13:04:10.268Z,1.10
2022-08-02T13:05:22.557Z,1.10
2022-08-02T13:06:43.045Z,1.00
2022-08-02T13:07:49.302Z,1.08
2022-08-02T13:08:58.994Z,1.10
2022-08-02T13:10:03.452Z,0.90
2022-08-02T13:11:10.592Z,1.02
2022-08-02T13:12:16.894Z,1.10
2022-08-02T13:13:20.164Z,0.95
2022-08-02T13:14:23.067Z,1.10
2022-08-02T13:15:50.987Z,1.00
2022-08-02T13:16:54.342Z,1.17
2022-08-02T13:17:59.338Z,0.85
2022-08-02T13:19:02.371Z,1.00
2022-08-02T13:20:07.038Z,0.90
2022-08-02T13:21:39.951Z,1.17
2022-08-02T13:22:39.841Z,1.00
2022-08-02T13:23:56.080Z,1.20
2022-08-02T13:24:59.060Z,1.00
2022-08-02T13:26:02.768Z,0.82
2022-08-02T13:27:08.091Z,1.00
2022-08-02T13:28:18.041Z,0.75
2022-08-02T13:29:25.706Z,0.82
2022-08-02T13:30:29.639Z,1.00
2022-08-02T13:31:36.628Z,0.73
2022-08-02T13:32:39.935Z,0.70
2022-08-02T13:33:42.838Z,1.20
2022-08-02T13:34:46.267Z,0.90
2022-08-02T13:35:50.952Z,0.90
2022-08-02T13:36:53.887Z,1.00
2022-08-02T13:37:57.069Z,0.90
2022-08-02T13:39:00.444Z,0.77
2022-08-02T13:40:21.340Z,0.80
2022-08-02T13:41:25.545Z,0.82
2022-08-02T13:42:28.598Z,1.10
2022-08-02T13:43:52.139Z,1.00
2022-08-02T13:44:54.763Z,0.68
2022-08-02T13:45:57.662Z,0.75
2022-08-02T13:47:02.261Z,0.88
2022-08-02T13:48:18.162Z,0.90
2022-08-02T13:49:51.248Z,0.70
2022-08-02T13:50:45.331Z,0.70
2022-08-02T13:51:48.992Z,0.90
2022-08-02T13:52:52.019Z,0.50
2022-08-02T13:53:55.111Z,0.85
2022-08-02T13:54:58.076Z,0.90
2022-08-02T13:56:01.418Z,0.73
2022-08-02T13:57:04.730Z,0.60
2022-08-02T13:58:08.246Z,0.75
2022-08-02T13:59:54.167Z,0.62
2022-08-02T14:00:40.555Z,0.80
2022-08-02T14:01:43.949Z,0.70
2022-08-02T14:02:46.911Z,0.62
2022-08-02T14:04:08.450Z,0.90
2022-08-02T14:05:12.266Z,0.80
2022-08-02T14:06:15.302Z,0.70
2022-08-02T14:07:18.605Z,0.77
2022-08-02T14:08:23.556Z,0.70
2022-08-02T14:09:27.383Z,0.70
2022-08-02T14:10:30.507Z,0.85
2022-08-02T14:11:33.995Z,0.70
2022-08-02T14:12:37.053Z,0.75
2022-08-02T14:13:40.201Z,1.00
2022-08-02T14:14:43.194Z,0.70
2022-08-02T14:15:47.130Z,0.62
2022-08-02T14:16:50.221Z,0.85
2022-08-02T14:17:53.317Z,0.62
2022-08-02T14:18:57.810Z,0.70
2022-08-02T14:20:00.672Z,0.80
2022-08-02T14:21:03.789Z,0.60
2022-08-02T14:22:10.820Z,0.90
2022-08-02T14:23:15.377Z,0.68
2022-08-02T14:24:20.360Z,0.62
2022-08-02T14:25:23.263Z,0.80
2022-08-02T14:26:27.923Z,0.55
2022-08-02T14:27:31.598Z,0.70
2022-08-02T14:28:46.181Z,0.62
2022-08-02T14:29:53.276Z,0.60
2022-08-02T14:30:56.119Z,0.80
2022-08-02T14:31:58.989Z,0.60
2022-08-02T14:33:05.622Z,0.70
2022-08-02T14:34:08.829Z,0.70
2022-08-02T14:35:11.871Z,0.70
2022-08-02T14:36:27.884Z,0.65
2022-08-02T14:37:34.639Z,0.60
2022-08-02T14:38:39.400Z,0.70
2022-08-02T14:39:59.322Z,0.82
2022-08-02T14:41:03.814Z,0.80
2022-08-02T14:42:10.827Z,0.80
2022-08-02T14:43:36.633Z,1.00
2022-08-02T14:44:39.756Z,0.77
2022-08-02T14:45:42.697Z,0.68
2022-08-02T14:46:45.907Z,1.00
2022-08-02T14:47:49.708Z,0.75
2022-08-02T14:48:53.180Z,0.80
2022-08-02T14:49:56.293Z,0.80
2022-08-02T14:50:59.490Z,0.85
2022-08-02T14:52:02.740Z,0.80
2022-08-02T14:53:05.679Z,0.80
2022-08-02T14:54:11.950Z,0.70
2022-08-02T14:55:18.149Z,0.57
2022-08-02T14:56:21.098Z,0.80
2022-08-02T14:57:24.144Z,0.70
2022-08-02T14:58:27.340Z,0.70
2022-08-02T14:59:31.221Z,0.80
2022-08-02T15:00:37.272Z,0.73
2022-08-02T15:01:43.320Z,1.00
2022-08-02T15:02:46.367Z,0.90
2022-08-02T15:03:49.520Z,0.80